nws-alerts: Checking more than four warning/county codes can delay the loading of your pages. You should use a cron job to get the data.

Nearby METAR Reports

 

KOXC - Oxford/Waterbury, Connecticut, USA
Distance from station: NW 7mi, 11km
Updated: 08/04/2021 6:51pm
Mostly cloudy
Mostly cloudy
 Wind from ENE
Wind: ENE 3 mph , 6 km/h
Temperature: 68°F , 20°C
Dew Point: 64°F , 18°C
Humidity: 88%
Barometer: 30.15 inHg , 1021 hPa
Clouds: Mostly cloudy
Visibility: 10 miles , 16 km
Cloud details: Few Clouds 2600 ft
Mostly cloudy 11000 ft
2021/08/04 22:51 KOXC 042251Z 07003KT 10SM FEW026 BKN110 20/18 A3015 RMK AO2 SLP220 T02000183
KHVN - New Haven/Tweed, Connecticut, USA
Distance from station: SE 13mi, 20km
Updated: 08/04/2021 6:53pm
Overcast
Overcast
 Wind from ESE
Wind: ESE 13 mph , 20 km/h
Temperature: 72°F , 22°C
Dew Point: 64°F , 18°C
Humidity: 78%
Barometer: 30.13 inHg , 1020.3 hPa
Clouds: Overcast
Visibility: 9 miles , 14 km
Cloud details: Mostly cloudy 1600 ft
Overcast 9500 ft
2021/08/04 22:53 KHVN 042253Z 11011KT 9SM BKN016 OVC095 22/18 A3013 RMK AO2 SLP202 T02170178
 
KMMK - Meriden, Connecticut, USA
Distance from station: NE 13mi, 21km
Updated: 08/04/2021 6:53pm
Mostly cloudy
Mostly cloudy
 Wind from calm
Wind: Calm
Temperature: 72°F , 22°C
Dew Point: 61°F , 16°C
Humidity: 69%
Barometer: 30.12 inHg , 1020 hPa
Clouds: Mostly cloudy
Visibility: 10 miles , 16 km
Cloud details: Few Clouds 5000 ft
Mostly cloudy 11000 ft
2021/08/04 22:53 KMMK 042253Z AUTO 00000KT 10SM FEW050 BKN110 22/16 A3012 RMK AO2 SLP200 T02170161
KBDR - Bridgeport, Connecticut, USA
Distance from station: SSW 17mi, 27km
Updated: 08/04/2021 7:13pm
Overcast
Overcast
 Wind from E
Wind: E 12 mph , 19 km/h
Temperature: 70°F , 21°C
Dew Point: 63°F , 17°C
Humidity: 78%
Barometer: 30.13 inHg , 1020.3 hPa
Clouds: Overcast
Visibility: 10 miles , 16 km
Cloud details: Few Clouds 1400 ft
Mostly cloudy 2100 ft
Overcast 4900 ft
2021/08/04 23:13 KBDR 042313Z 09010KT 10SM FEW014 BKN021 OVC049 21/17 A3013 RMK AO2 T02110172
 
KDXR - Danbury, Connecticut, USA
Distance from station: W 23mi, 38km
Updated: 08/04/2021 6:53pm
Clear
Clear
 Wind from E
Wind: E 7 mph , 11 km/h
Temperature: 72°F , 22°C
Dew Point: 61°F , 16°C
Humidity: 69%
Barometer: 30.14 inHg , 1020.7 hPa
Clouds: Clear
Visibility: 10 miles , 16 km
2021/08/04 22:53 KDXR 042253Z 10006KT 10SM CLR 22/16 A3014 RMK AO2 SLP204 T02170161